createdAt,value
2022-08-26T00:02:12.686Z,99188.88
2022-08-26T00:05:15.007Z,99191.78
2022-08-26T00:08:17.430Z,99188.31
2022-08-26T00:11:26.308Z,99189.22
2022-08-26T00:14:31.207Z,99197.34
2022-08-26T00:17:33.812Z,99203.44
2022-08-26T00:20:36.327Z,99205.84
2022-08-26T00:23:38.428Z,99205.63
2022-08-26T00:26:41.350Z,99200.88
2022-08-26T00:29:43.742Z,99212.91
2022-08-26T00:32:47.106Z,99204.47
2022-08-26T00:35:50.797Z,99210.34
2022-08-26T00:38:53.732Z,99230.13
2022-08-26T00:41:55.793Z,99210.69
2022-08-26T00:44:57.891Z,99215.88
2022-08-26T00:48:03.855Z,99215.19
2022-08-26T00:51:17.794Z,99215.88
2022-08-26T00:54:23.338Z,99207.31
2022-08-26T00:57:25.892Z,99213.22
2022-08-26T01:00:31.499Z,99215.31
2022-08-26T01:03:34.378Z,99213.66
2022-08-26T01:06:36.562Z,99212.56
2022-08-26T01:09:39.733Z,99209.56
2022-08-26T01:12:46.499Z,99211.97
2022-08-26T01:15:51.226Z,99221.53
2022-08-26T01:18:55.400Z,99224.28
2022-08-26T01:22:10.415Z,99217.84
2022-08-26T01:25:14.495Z,99225.72
2022-08-26T01:28:21.764Z,99215.88
2022-08-26T01:31:27.240Z,99222.25
2022-08-26T01:34:37.513Z,99217.06
2022-08-26T01:37:40.515Z,99220.97
2022-08-26T01:40:43.967Z,99222.03
2022-08-26T01:43:47.021Z,99218.09
2022-08-26T01:46:50.782Z,99212.66
2022-08-26T01:49:54.858Z,99222.09
2022-08-26T01:52:58.036Z,99230.34
2022-08-26T01:56:00.468Z,99235.88
2022-08-26T01:59:05.270Z,99239.00
2022-08-26T02:02:07.434Z,99245.25
2022-08-26T02:05:11.014Z,99241.28
2022-08-26T02:08:14.187Z,99244.72
2022-08-26T02:11:24.906Z,99242.50
2022-08-26T02:14:34.885Z,99244.91
2022-08-26T02:17:46.335Z,99252.31
2022-08-26T02:20:51.915Z,99249.66
2022-08-26T02:23:56.265Z,99244.09
2022-08-26T02:26:58.560Z,99253.91
2022-08-26T02:30:23.111Z,99252.00
2022-08-26T02:33:27.499Z,99249.59
2022-08-26T02:36:29.899Z,99241.72
2022-08-26T02:39:32.495Z,99247.88
2022-08-26T02:42:34.661Z,99246.22
2022-08-26T02:45:37.458Z,99257.91
2022-08-26T02:48:39.570Z,99262.38
2022-08-26T02:51:43.105Z,99263.53
2022-08-26T02:54:45.396Z,99259.09
2022-08-26T02:57:47.642Z,99269.69
2022-08-26T03:00:53.163Z,99271.47
2022-08-26T03:03:56.030Z,99273.63
2022-08-26T03:06:58.425Z,99273.06
2022-08-26T03:10:00.832Z,99269.25
2022-08-26T03:13:02.899Z,99264.81
2022-08-26T03:16:07.791Z,99270.81
2022-08-26T03:19:10.222Z,99270.28
2022-08-26T03:22:12.285Z,99269.47
2022-08-26T03:25:16.963Z,99272.75
2022-08-26T03:28:19.382Z,99268.28
2022-08-26T03:31:21.969Z,99268.28
2022-08-26T03:34:27.830Z,99268.50
2022-08-26T03:37:29.947Z,99259.22
2022-08-26T03:40:33.895Z,99260.63
2022-08-26T03:43:36.087Z,99264.69
2022-08-26T03:46:38.621Z,99258.69
2022-08-26T03:49:41.834Z,99257.69
2022-08-26T03:52:44.543Z,99255.09
2022-08-26T03:55:46.622Z,99260.63
2022-08-26T03:58:48.745Z,99264.03
2022-08-26T04:01:53.133Z,99266.16
2022-08-26T04:04:55.246Z,99259.41
2022-08-26T04:07:57.638Z,99270.53
2022-08-26T04:11:01.285Z,99269.38
2022-08-26T04:14:06.597Z,99266.31
2022-08-26T04:17:09.251Z,99268.84
2022-08-26T04:20:13.992Z,99260.53
2022-08-26T04:23:18.356Z,99261.41
2022-08-26T04:26:22.638Z,99265.91
2022-08-26T04:29:26.311Z,99264.63
2022-08-26T04:32:28.648Z,99259.63
2022-08-26T04:35:31.718Z,99256.31
2022-08-26T04:38:34.524Z,99255.09
2022-08-26T04:41:37.298Z,99251.94
2022-08-26T04:44:39.424Z,99253.16
2022-08-26T04:47:41.662Z,99246.72
2022-08-26T04:50:43.827Z,99241.13
2022-08-26T04:53:47.062Z,99232.97
2022-08-26T04:56:50.694Z,99226.84
2022-08-26T04:59:53.185Z,99237.25
2022-08-26T05:02:55.250Z,99239.06
2022-08-26T05:05:57.801Z,99251.13
2022-08-26T05:08:59.870Z,99248.63
2022-08-26T05:12:01.942Z,99255.50
2022-08-26T05:15:06.249Z,99275.63
2022-08-26T05:18:08.803Z,99270.63
2022-08-26T05:21:22.915Z,99272.81
2022-08-26T05:24:24.999Z,99265.66
2022-08-26T05:27:27.162Z,99268.91
2022-08-26T05:30:31.436Z,99262.19
2022-08-26T05:33:33.519Z,99267.22
2022-08-26T05:36:36.037Z,99265.47
2022-08-26T05:39:41.195Z,99262.28
2022-08-26T05:42:43.415Z,99256.81
2022-08-26T05:45:50.143Z,99259.78
2022-08-26T05:48:52.663Z,99262.31
2022-08-26T05:51:54.752Z,99264.25
2022-08-26T05:54:57.087Z,99266.88
2022-08-26T05:57:59.156Z,99278.72
2022-08-26T06:01:15.380Z,99273.41
2022-08-26T06:04:17.491Z,99276.09
2022-08-26T06:07:42.167Z,99279.66
2022-08-26T06:10:55.710Z,99278.69
2022-08-26T06:14:03.801Z,99277.09
2022-08-26T06:17:06.319Z,99282.59
2022-08-26T06:20:11.827Z,99288.06
2022-08-26T06:23:33.957Z,99288.75
2022-08-26T06:26:36.696Z,99281.81
2022-08-26T06:29:38.836Z,99281.44
2022-08-26T06:32:40.911Z,99271.00
2022-08-26T06:35:43.198Z,99270.47
2022-08-26T06:38:47.338Z,99273.47
2022-08-26T06:41:49.482Z,99280.22
2022-08-26T06:44:52.775Z,99283.19
2022-08-26T06:47:55.060Z,99273.69
2022-08-26T06:51:28.755Z,99275.13
2022-08-26T06:54:31.710Z,99276.84
2022-08-26T06:57:37.695Z,99278.50
2022-08-26T07:00:41.872Z,99285.16
2022-08-26T07:03:50.983Z,99283.59
2022-08-26T07:06:53.695Z,99292.13
2022-08-26T07:09:56.074Z,99292.66
2022-08-26T07:12:59.198Z,99298.81
2022-08-26T07:16:04.161Z,99296.22
2022-08-26T07:19:11.423Z,99292.25
2022-08-26T07:22:13.782Z,99299.53
2022-08-26T07:25:16.147Z,99300.47
2022-08-26T07:28:18.217Z,99301.28
2022-08-26T07:31:22.712Z,99296.00
2022-08-26T07:34:25.373Z,99301.09
2022-08-26T07:37:28.445Z,99303.25
2022-08-26T07:40:37.668Z,99303.03
2022-08-26T07:43:39.911Z,99301.88
2022-08-26T07:46:44.003Z,99301.94
2022-08-26T07:49:46.410Z,99307.81
2022-08-26T07:52:54.786Z,99304.44
2022-08-26T07:55:58.987Z,99305.34
2022-08-26T07:59:01.638Z,99302.19
2022-08-26T08:02:04.822Z,99316.59
2022-08-26T08:05:07.319Z,99305.66
2022-08-26T08:08:21.873Z,99307.19
2022-08-26T08:11:31.066Z,99307.34
2022-08-26T08:14:34.635Z,99294.06
2022-08-26T08:17:36.825Z,99291.66
2022-08-26T08:20:39.421Z,99296.75
2022-08-26T08:23:46.886Z,99297.84
2022-08-26T08:26:50.278Z,99308.84
2022-08-26T08:29:56.960Z,99304.78
2022-08-26T08:32:59.074Z,99302.63
2022-08-26T08:36:02.058Z,99310.41
2022-08-26T08:39:04.359Z,99309.22
2022-08-26T08:42:29.498Z,99308.00
2022-08-26T08:45:42.582Z,99297.00
2022-08-26T08:48:48.179Z,99300.88
2022-08-26T08:51:58.839Z,99306.09
2022-08-26T08:55:02.901Z,99301.78
2022-08-26T08:58:11.943Z,99305.72
2022-08-26T09:01:39.520Z,99303.41
2022-08-26T09:05:20.742Z,99310.94
2022-08-26T09:08:28.381Z,99301.38
2022-08-26T09:11:30.555Z,99305.19
2022-08-26T09:14:32.665Z,99299.81
2022-08-26T09:18:00.983Z,99305.91
2022-08-26T09:21:12.183Z,99301.25
2022-08-26T09:24:14.319Z,99302.16
2022-08-26T09:27:46.137Z,99293.47
2022-08-26T09:31:12.551Z,99298.09
2022-08-26T09:34:19.026Z,99289.03
2022-08-26T09:37:40.610Z,99283.16
2022-08-26T09:40:44.706Z,99284.53
2022-08-26T09:44:19.262Z,99281.84
2022-08-26T09:47:34.264Z,99282.72
2022-08-26T09:50:53.415Z,99287.22
2022-08-26T09:54:00.747Z,99283.66
2022-08-26T09:57:26.046Z,99281.84
2022-08-26T10:00:41.947Z,99284.03
2022-08-26T10:03:45.013Z,99277.03
2022-08-26T10:07:09.870Z,99290.97
2022-08-26T10:10:30.092Z,99288.44
2022-08-26T10:13:43.483Z,99280.81
2022-08-26T10:17:03.977Z,99276.59
2022-08-26T10:20:42.823Z,99289.22
2022-08-26T10:23:56.143Z,99294.88
2022-08-26T10:27:28.655Z,99290.94
2022-08-26T10:30:40.223Z,99289.66
2022-08-26T10:33:44.992Z,99294.56
2022-08-26T10:37:14.547Z,99286.88
2022-08-26T10:40:27.980Z,99287.22
2022-08-26T10:44:07.660Z,99296.72
2022-08-26T10:47:15.603Z,99287.19
2022-08-26T10:50:18.989Z,99290.34
2022-08-26T10:53:51.433Z,99274.66
2022-08-26T10:57:02.903Z,99279.88
2022-08-26T11:00:34.740Z,99281.09
2022-08-26T11:04:38.886Z,99279.34
2022-08-26T11:07:46.350Z,99270.63
2022-08-26T11:10:58.033Z,99284.31
2022-08-26T11:14:10.979Z,99279.03
2022-08-26T11:17:13.062Z,99278.72
2022-08-26T11:20:33.131Z,99265.53
2022-08-26T11:23:45.386Z,99263.47
2022-08-26T11:26:55.921Z,99254.28
2022-08-26T11:30:13.159Z,99256.03
2022-08-26T11:33:45.423Z,99266.31
2022-08-26T11:36:47.703Z,99266.16
2022-08-26T11:39:55.467Z,99264.38
2022-08-26T11:43:06.759Z,99257.78
2022-08-26T11:46:11.681Z,99256.03
2022-08-26T11:49:14.773Z,99260.91
2022-08-26T11:52:22.137Z,99257.22
2022-08-26T11:55:24.350Z,99255.19
2022-08-26T11:58:27.368Z,99257.75
2022-08-26T12:01:31.923Z,99261.50
2022-08-26T12:04:34.919Z,99271.94
2022-08-26T12:07:37.160Z,99255.66
2022-08-26T12:10:44.774Z,99255.03
2022-08-26T12:13:57.759Z,99252.06
2022-08-26T12:17:13.539Z,99249.78
2022-08-26T12:20:48.806Z,99252.72
2022-08-26T12:23:55.842Z,99242.16
2022-08-26T12:27:17.214Z,99247.88
2022-08-26T12:30:24.111Z,99244.78
2022-08-26T12:33:28.451Z,99246.06
2022-08-26T12:36:39.177Z,99253.69
2022-08-26T12:39:43.523Z,99246.84
2022-08-26T12:42:45.655Z,99236.72
2022-08-26T12:45:58.483Z,99236.97
2022-08-26T12:49:04.126Z,99239.50
2022-08-26T12:52:08.036Z,99245.41
2022-08-26T12:55:23.070Z,99238.00
2022-08-26T12:58:35.030Z,99235.16
2022-08-26T13:01:44.365Z,99237.88
2022-08-26T13:04:46.635Z,99226.13
2022-08-26T13:08:10.726Z,99232.41
2022-08-26T13:11:20.562Z,99229.34
2022-08-26T13:14:24.579Z,99217.13
2022-08-26T13:17:28.408Z,99228.38
2022-08-26T13:20:30.913Z,99229.47
2022-08-26T13:23:32.974Z,99230.94
2022-08-26T13:26:35.682Z,99237.06
2022-08-26T13:29:37.815Z,99232.34
2022-08-26T13:32:39.903Z,99223.13
2022-08-26T13:35:42.496Z,99224.69
2022-08-26T13:38:44.665Z,99223.75
2022-08-26T13:41:50.599Z,99226.16
2022-08-26T13:44:57.933Z,99218.69
2022-08-26T13:48:00.509Z,99227.13
2022-08-26T13:51:02.901Z,99223.16
2022-08-26T13:54:10.321Z,99228.09
2022-08-26T13:57:12.427Z,99221.56
2022-08-26T14:00:15.832Z,99221.25
2022-08-26T14:03:18.147Z,99218.41
2022-08-26T14:06:20.337Z,99211.25
2022-08-26T14:09:22.438Z,99212.78
2022-08-26T14:12:24.886Z,99211.75
2022-08-26T14:15:27.134Z,99206.56
2022-08-26T14:18:43.652Z,99211.69
2022-08-26T14:21:48.323Z,99206.91
2022-08-26T14:24:50.559Z,99205.88
2022-08-26T14:27:55.478Z,99213.25
2022-08-26T14:30:58.244Z,99217.31
2022-08-26T14:34:03.873Z,99218.59
2022-08-26T14:37:08.224Z,99213.41
2022-08-26T14:40:15.249Z,99222.72
2022-08-26T14:43:17.362Z,99215.91
2022-08-26T14:46:19.518Z,99217.16
2022-08-26T14:49:22.456Z,99214.13
2022-08-26T14:52:24.931Z,99212.41
2022-08-26T14:55:27.517Z,99225.69
2022-08-26T14:58:34.761Z,99217.88
2022-08-26T15:01:37.336Z,99215.72
2022-08-26T15:04:40.617Z,99213.16
2022-08-26T15:07:42.843Z,99207.59
2022-08-26T15:10:44.935Z,99203.81
2022-08-26T15:13:47.188Z,99218.69
2022-08-26T15:16:55.828Z,99202.44
2022-08-26T15:19:58.078Z,99199.03
2022-08-26T15:23:06.269Z,99202.00
2022-08-26T15:26:10.233Z,99202.50
2022-08-26T15:29:12.488Z,99210.69
2022-08-26T15:32:14.558Z,99201.72
2022-08-26T15:35:16.715Z,99204.19
2022-08-26T15:38:18.848Z,99207.91
2022-08-26T15:41:20.939Z,99210.38
2022-08-26T15:44:23.126Z,99205.84
2022-08-26T15:47:25.257Z,99203.63
2022-08-26T15:50:27.369Z,99200.06
2022-08-26T15:53:31.498Z,99200.66
2022-08-26T15:56:35.456Z,99208.91
2022-08-26T15:59:37.640Z,99199.41
2022-08-26T16:02:39.721Z,99201.38
2022-08-26T16:05:43.628Z,99198.84
2022-08-26T16:08:46.230Z,99200.53
2022-08-26T16:11:48.323Z,99197.41
2022-08-26T16:14:53.970Z,99200.31
2022-08-26T16:17:59.095Z,99194.50
2022-08-26T16:21:12.905Z,99198.72
2022-08-26T16:24:16.207Z,99199.44
2022-08-26T16:27:18.296Z,99191.13
2022-08-26T16:30:25.319Z,99191.16
2022-08-26T16:33:29.426Z,99191.53
2022-08-26T16:36:32.031Z,99182.97
2022-08-26T16:39:34.109Z,99180.75
2022-08-26T16:42:42.300Z,99185.97
2022-08-26T16:45:44.395Z,99179.38
2022-08-26T16:48:46.522Z,99170.22
2022-08-26T16:51:48.642Z,99165.00
2022-08-26T16:54:50.797Z,99169.72
2022-08-26T16:57:52.986Z,99178.63
2022-08-26T17:00:55.074Z,99177.81
2022-08-26T17:03:57.274Z,99182.00
2022-08-26T17:06:59.782Z,99180.72
2022-08-26T17:10:02.923Z,99177.78
2022-08-26T17:13:05.005Z,99187.41
2022-08-26T17:16:09.382Z,99187.19
2022-08-26T17:19:11.516Z,99184.69
2022-08-26T17:22:13.659Z,99176.88
2022-08-26T17:25:23.302Z,99175.31
2022-08-26T17:28:25.373Z,99183.25
2022-08-26T17:31:27.518Z,99181.56
2022-08-26T17:34:29.638Z,99191.13
2022-08-26T17:37:31.879Z,99185.19
2022-08-26T17:40:34.823Z,99184.72
2022-08-26T17:43:37.583Z,99173.31
2022-08-26T17:46:39.878Z,99180.53
2022-08-26T17:49:41.993Z,99165.50
2022-08-26T17:52:44.382Z,99166.50
2022-08-26T17:55:50.153Z,99182.41
2022-08-26T17:59:02.234Z,99182.72
2022-08-26T18:02:06.237Z,99191.97
2022-08-26T18:05:11.550Z,99193.97
2022-08-26T18:08:13.640Z,99195.41
2022-08-26T18:11:18.585Z,99199.28
2022-08-26T18:14:21.791Z,99196.19
2022-08-26T18:17:23.911Z,99201.03
2022-08-26T18:20:26.053Z,99197.03
2022-08-26T18:23:28.317Z,99197.69
2022-08-26T18:26:36.333Z,99198.03
2022-08-26T18:29:45.296Z,99201.34
2022-08-26T18:32:49.179Z,99203.88
2022-08-26T18:35:51.279Z,99206.94
2022-08-26T18:38:54.064Z,99208.63
2022-08-26T18:41:56.175Z,99210.28
2022-08-26T18:44:58.271Z,99215.56
2022-08-26T18:48:01.973Z,99207.31
2022-08-26T18:51:04.457Z,99218.66
2022-08-26T18:54:07.362Z,99213.78
2022-08-26T18:57:09.715Z,99217.59
2022-08-26T19:00:12.458Z,99218.97
2022-08-26T19:03:18.927Z,99217.13
2022-08-26T19:06:22.285Z,99221.34
2022-08-26T19:09:26.363Z,99227.91
2022-08-26T19:12:29.626Z,99233.88
2022-08-26T19:15:41.374Z,99232.56
2022-08-26T19:18:43.555Z,99236.00
2022-08-26T19:21:45.926Z,99235.53
2022-08-26T19:24:48.123Z,99242.53
2022-08-26T19:27:50.232Z,99240.38
2022-08-26T19:30:53.310Z,99233.97
2022-08-26T19:33:56.703Z,99245.72
2022-08-26T19:36:58.905Z,99237.19
2022-08-26T19:40:01.109Z,99245.47
2022-08-26T19:43:03.661Z,99243.59
2022-08-26T19:46:11.313Z,99248.19
2022-08-26T19:49:13.444Z,99255.66
2022-08-26T19:52:15.591Z,99255.13
2022-08-26T19:55:18.653Z,99251.38
2022-08-26T19:58:21.001Z,99253.44
2022-08-26T20:01:24.602Z,99260.41
2022-08-26T20:04:26.903Z,99260.19
2022-08-26T20:07:30.040Z,99263.72
2022-08-26T20:10:34.610Z,99267.19
2022-08-26T20:13:36.855Z,99269.06
2022-08-26T20:16:38.995Z,99268.81
2022-08-26T20:19:59.685Z,99273.88
2022-08-26T20:23:03.671Z,99274.97
2022-08-26T20:26:05.905Z,99278.69
2022-08-26T20:29:08.620Z,99275.47
2022-08-26T20:32:11.992Z,99280.31
2022-08-26T20:35:14.463Z,99279.22
2022-08-26T20:38:20.873Z,99274.84
2022-08-26T20:41:25.810Z,99277.03
2022-08-26T20:44:28.317Z,99272.47
2022-08-26T20:47:30.839Z,99271.78
2022-08-26T20:50:33.387Z,99286.56
2022-08-26T20:53:35.842Z,99284.69
2022-08-26T20:56:38.105Z,99281.19
2022-08-26T20:59:40.610Z,99294.28
2022-08-26T21:02:42.745Z,99292.38
2022-08-26T21:05:45.282Z,99294.47
2022-08-26T21:08:48.398Z,99297.63
2022-08-26T21:11:50.622Z,99298.97
2022-08-26T21:14:53.229Z,99300.88
2022-08-26T21:17:55.391Z,99299.06
2022-08-26T21:20:57.807Z,99301.72
2022-08-26T21:24:00.083Z,99302.00
2022-08-26T21:27:02.299Z,99302.09
2022-08-26T21:30:05.189Z,99309.06
2022-08-26T21:33:07.742Z,99309.00
2022-08-26T21:36:10.511Z,99311.25
2022-08-26T21:39:12.957Z,99312.84
2022-08-26T21:42:15.080Z,99312.84
2022-08-26T21:45:17.343Z,99315.31
2022-08-26T21:48:19.624Z,99315.56
2022-08-26T21:51:23.363Z,99324.13
2022-08-26T21:54:25.606Z,99321.44
2022-08-26T21:57:29.085Z,99318.81
2022-08-26T22:00:31.203Z,99322.16
2022-08-26T22:03:39.320Z,99327.50
2022-08-26T22:06:53.561Z,99327.16
2022-08-26T22:09:56.158Z,99330.13
2022-08-26T22:12:58.566Z,99331.94
2022-08-26T22:16:00.982Z,99324.19
2022-08-26T22:19:03.279Z,99335.84
2022-08-26T22:22:05.433Z,99335.63
2022-08-26T22:25:08.290Z,99333.97
2022-08-26T22:28:10.563Z,99332.63
2022-08-26T22:31:13.510Z,99334.25
2022-08-26T22:34:17.388Z,99327.31
2022-08-26T22:37:19.576Z,99325.78
2022-08-26T22:40:21.838Z,99326.34
2022-08-26T22:43:24.833Z,99327.44
2022-08-26T22:46:27.166Z,99324.47
2022-08-26T22:49:29.267Z,99326.84
2022-08-26T22:52:31.450Z,99318.50
2022-08-26T22:55:33.669Z,99322.94
2022-08-26T22:58:36.087Z,99324.31
2022-08-26T23:01:40.922Z,99329.44
2022-08-26T23:04:43.109Z,99328.31
2022-08-26T23:07:45.247Z,99328.34
2022-08-26T23:10:47.497Z,99325.25
2022-08-26T23:13:49.584Z,99329.75
2022-08-26T23:16:51.914Z,99323.22
2022-08-26T23:19:55.213Z,99324.13
2022-08-26T23:22:57.650Z,99323.13
2022-08-26T23:26:03.273Z,99323.34
2022-08-26T23:29:09.084Z,99328.97
2022-08-26T23:32:11.481Z,99327.44
2022-08-26T23:35:14.280Z,99332.66
2022-08-26T23:38:16.539Z,99330.97
2022-08-26T23:41:18.662Z,99324.41
2022-08-26T23:44:21.274Z,99325.03
2022-08-26T23:47:23.414Z,99329.78
2022-08-26T23:50:47.563Z,99331.69
2022-08-26T23:53:49.689Z,99328.91
2022-08-26T23:56:51.783Z,99331.69
2022-08-26T23:59:53.894Z,99335.44
